SBOSBO TIA / LATI
Speedbird OnlineSpeedbird Online TIA / LATI

Tirana International Airport Mother Teresa
08:56 14°C

Location Tirana, Albania
Latitude: 41.4146995544
Longitude: 19.7206001282
Web Airport Website | Wikipedia
Altitude 38 Meter / 126 Feet
Distance 1,864 KM / 1,158 Miles
from London.
Time Zone UTC +2 hours (Europe/Tirane)
Codes IATA: TIA
ICAO: LATI
Currency £1 equals ALL 134.30
Runways
RunwayLength (m)Surface
172750Asphalt
352750Asphalt
Radio
TypeDescriptionFrequency
ACCACC127.5
APPAPP133.15
TWRTWR122.5
Live ATC
METAR LATI 060620Z VRB02KT CAVOK 13/09 Q1026 NOSIG
TAF TAF LATI 060500Z 0606/0706 VRB03KT CAVOK TX26/0612Z TN09/0703Z TEMPO 0610/0617 34013KT
Weather As Of 06 Oct 2022 08:56
Description Clear sky
Wind 4 km/h from North (0°)
Cloud Cover 0%
Precipitation Rain: none, Snow: none
Sunrise 06:42
Sunset 18:15
Lounges Tirana Airport Business Class Lounge , International terminal
Rotations During the last 90 days there were
137 flights from LHR
139 flights to LHR


© 2017-2022 Speedbird Online